Time,TemperatureF,DewpointF,PressureIn,WindDirection,WindDirectionDegrees,WindSpeedMPH,WindSpeedGustMPH,Humidity,HourlyPrecipIn,Conditions,Clouds,dailyrainin,SoftwareType,DateUTC
2013-05-30 00:27:00,51.6,49.1,29.86,East,84,1.0,3.0,91,0.00,,---,0.00,VWS V14.01,2013-05-30 08:27:00,
2013-05-30 00:57:00,51.6,49.1,29.86,SE,146,0.0,2.0,91,0.00,,---,0.00,VWS V14.01,2013-05-30 08:57:00,
2013-05-30 01:27:00,51.3,48.8,29.87,NW,316,1.0,3.0,91,0.00,,---,0.00,VWS V14.01,2013-05-30 09:27:00,
2013-05-30 01:57:00,51.4,48.9,29.87,WSW,255,1.0,3.0,91,0.00,,---,0.00,VWS V14.01,2013-05-30 09:57:00,
2013-05-30 02:27:00,51.2,48.7,29.87,NE,37,0.0,3.0,91,0.00,,---,0.00,VWS V14.01,2013-05-30 10:27:00,
2013-05-30 02:57:00,51.2,48.7,29.88,NNW,333,0.0,1.0,91,0.00,,---,0.00,VWS V14.01,2013-05-30 10:57:00,
2013-05-30 03:27:00,51.2,48.7,29.88,SW,218,0.0,2.0,91,0.00,,---,0.00,VWS V14.01,2013-05-30 11:27:00,
2013-05-30 03:57:00,50.7,48.2,29.89,SW,218,0.0,1.0,91,0.00,,---,0.00,VWS V14.01,2013-05-30 11:57:00,
2013-05-30 04:27:00,50.5,48.3,29.90,ENE,65,0.0,0.0,92,0.00,,---,0.00,VWS V14.01,2013-05-30 12:27:00,
2013-05-30 04:57:00,50.3,48.4,29.90,ENE,65,0.0,0.0,93,0.00,,---,0.00,VWS V14.01,2013-05-30 12:57:00,
2013-05-30 05:27:00,49.9,48.2,29.91,ENE,60,0.0,0.0,94,0.00,,---,0.00,VWS V14.01,2013-05-30 13:27:00,
2013-05-30 05:57:00,50.1,48.7,29.91,ENE,62,0.0,0.0,95,0.00,,---,0.00,VWS V14.01,2013-05-30 13:57:00,
2013-05-30 06:27:00,49.9,48.5,29.92,ENE,61,0.0,0.0,95,0.00,,---,0.00,VWS V14.01,2013-05-30 14:27:00,
2013-05-30 06:57:00,49.7,48.6,29.92,ENE,62,0.0,0.0,96,0.00,,---,0.00,VWS V14.01,2013-05-30 14:57:00,
2013-05-30 07:27:00,49.8,48.7,29.92,ENE,61,0.0,0.0,96,0.00,,---,0.00,VWS V14.01,2013-05-30 15:27:00,
2013-05-30 07:57:00,50.4,49.6,29.93,ENE,58,0.0,0.0,97,0.00,,---,0.00,VWS V14.01,2013-05-30 15:57:00,
2013-05-30 08:27:00,51.2,50.1,29.93,SE,144,0.0,2.0,96,0.00,,---,0.00,VWS V14.01,2013-05-30 16:27:00,
2013-05-30 08:57:00,51.0,49.9,29.93,NE,52,0.0,2.0,96,0.01,,---,0.01,VWS V14.01,2013-05-30 16:57:00,
2013-05-30 09:27:00,52.6,51.2,29.93,SSE,158,1.0,3.0,95,0.01,,---,0.01,VWS V14.01,2013-05-30 17:27:00,
2013-05-30 09:57:00,53.3,50.7,29.94,WSW,245,0.0,4.0,91,0.01,,---,0.01,VWS V14.01,2013-05-30 17:57:00,
2013-05-30 10:27:00,52.5,50.2,29.95,SSW,204,1.0,5.0,92,0.00,,---,0.01,VWS V14.01,2013-05-30 18:27:00,
2013-05-30 10:57:00,53.0,50.5,29.95,SSW,201,3.0,6.0,91,0.00,,---,0.01,VWS V14.01,2013-05-30 18:57:00,
2013-05-30 11:27:00,55.1,51.6,29.95,SW,217,0.0,5.0,88,0.00,,---,0.01,VWS V14.01,2013-05-30 19:27:00,
2013-05-30 11:57:00,55.1,51.0,29.95,NE,44,3.0,3.0,86,0.00,,---,0.01,VWS V14.01,2013-05-30 19:57:00,
2013-05-30 12:27:00,55.8,50.4,29.95,NE,53,1.0,5.0,82,0.00,,---,0.01,VWS V14.01,2013-05-30 20:27:00,
2013-05-30 12:57:00,58.2,51.7,29.95,SSE,157,4.0,5.0,79,0.00,,---,0.01,VWS V14.01,2013-05-30 20:57:00,
2013-05-30 13:27:00,57.9,51.1,29.95,SW,214,3.0,4.0,78,0.00,,---,0.01,VWS V14.01,2013-05-30 21:27:00,
2013-05-30 13:57:00,57.6,51.1,29.95,SE,135,0.0,5.0,79,0.00,,---,0.01,VWS V14.01,2013-05-30 21:57:00,
2013-05-30 14:27:00,58.8,52.0,29.95,WSW,253,1.0,4.0,78,0.00,,---,0.01,VWS V14.01,2013-05-30 22:27:00,
2013-05-30 14:57:00,60.4,50.2,29.95,ESE,120,2.0,4.0,69,0.00,,---,0.01,VWS V14.01,2013-05-30 22:57:00,
2013-05-30 15:27:00,60.4,50.6,29.96,SW,231,2.0,5.0,70,0.00,,---,0.01,VWS V14.01,2013-05-30 23:27:00,
2013-05-30 15:57:00,60.6,50.8,29.95,SW,221,2.0,5.0,70,0.00,,---,0.01,VWS V14.01,2013-05-30 23:57:00,
2013-05-30 16:27:00,62.0,51.3,29.95,ESE,120,1.0,6.0,68,0.00,,---,0.01,VWS V14.01,2013-05-31 00:27:00,
2013-05-30 16:58:00,61.5,51.2,29.95,South,170,4.0,5.0,69,0.00,,---,0.01,VWS V14.01,2013-05-31 00:58:00,
2013-05-30 17:27:00,62.4,50.9,29.94,WSW,242,1.0,6.0,66,0.00,,---,0.01,VWS V14.01,2013-05-31 01:27:00,
2013-05-30 17:58:00,62.1,50.6,29.95,West,269,0.0,7.0,66,0.00,,---,0.01,VWS V14.01,2013-05-31 01:58:00,
2013-05-30 18:27:00,59.5,50.5,29.95,SW,235,3.0,4.0,72,0.00,,---,0.01,VWS V14.01,2013-05-31 02:27:00,
2013-05-30 18:57:00,60.5,50.3,29.95,SE,125,0.0,7.0,69,0.00,,---,0.01,VWS V14.01,2013-05-31 02:57:00,
2013-05-30 19:27:00,60.5,50.7,29.95,West,267,1.0,5.0,70,0.00,,---,0.01,VWS V14.01,2013-05-31 03:27:00,
2013-05-30 19:57:00,58.9,51.0,29.94,SSE,161,1.0,3.0,75,0.00,,---,0.01,VWS V14.01,2013-05-31 03:57:00,
2013-05-30 20:28:00,57.3,50.2,29.94,SSW,212,0.0,5.0,77,0.00,,---,0.01,VWS V14.01,2013-05-31 04:28:00,
2013-05-30 20:58:00,55.5,49.8,29.95,South,191,3.0,4.0,81,0.00,,---,0.01,VWS V14.01,2013-05-31 04:58:00,
2013-05-30 21:27:00,53.8,49.1,29.96,SW,231,2.0,5.0,84,0.00,,---,0.01,VWS V14.01,2013-05-31 05:27:00,
2013-05-30 21:57:00,53.4,49.0,29.97,SW,217,0.0,4.0,85,0.00,,---,0.01,VWS V14.01,2013-05-31 05:57:00,
2013-05-30 22:27:00,52.4,48.3,29.98,SW,228,0.0,2.0,86,0.00,,---,0.01,VWS V14.01,2013-05-31 06:27:00,
2013-05-30 22:57:00,51.9,48.5,29.99,SE,144,0.0,3.0,88,0.00,,---,0.01,VWS V14.01,2013-05-31 06:57:00,
2013-05-30 23:27:00,51.4,47.4,30.00,SW,221,2.0,3.0,86,0.00,,---,0.01,VWS V14.01,2013-05-31 07:27:00,
2013-05-30 23:57:00,52.0,48.0,30.01,SW,221,0.0,2.0,86,0.00,,---,0.00,VWS V14.01,2013-05-31 07:57:00,